Time;durP1;ratioP1;P1;durP2;ratioP2;P2;SDS_P1;SDS_P2;PMS_P1;PMS_P2;Temp;Humidity;BMP_temperature;BMP_pressure;BME280_temperature;BME280_humidity;BME280_pressure;Samples;Min_cycle;Max_cycle;Signal;HPM_P1;HPM_P2
2021/07/04 00:01:07;;;;;;;8.67;5.00;;;22.30;54.50;;;;;;4986117;28;20452;-87
2021/07/04 00:03:34;;;;;;;6.67;5.47;;;22.40;52.80;;;;;;4987588;28;20447;-87
2021/07/04 00:06:01;;;;;;;8.03;6.10;;;22.60;52.30;;;;;;4988362;28;20472;-86
2021/07/04 00:08:28;;;;;;;8.27;5.93;;;22.70;51.80;;;;;;4997127;28;20478;-87
2021/07/04 00:10:59;;;;;;;11.83;5.20;;;22.70;52.20;;;;;;5005936;28;20439;-88
2021/07/04 00:13:27;;;;;;;7.73;6.03;;;22.80;51.40;;;;;;4994659;28;20474;-87
2021/07/04 00:15:54;;;;;;;6.47;5.40;;;22.90;51.80;;;;;;5007113;28;20467;-87
2021/07/04 00:18:23;;;;;;;6.03;5.00;;;22.80;50.60;;;;;;4982704;28;20531;-87
2021/07/04 00:20:51;;;;;;;7.10;5.00;;;23.00;50.40;;;;;;4978817;28;20482;-87
2021/07/04 00:23:18;;;;;;;10.03;5.90;;;23.00;50.80;;;;;;4981138;28;20464;-86
2021/07/04 00:25:47;;;;;;;7.93;5.47;;;22.80;51.60;;;;;;4991760;28;20590;-87
2021/07/04 00:28:15;;;;;;;8.37;6.60;;;22.60;52.10;;;;;;4990778;28;20526;-87
2021/07/04 00:30:43;;;;;;;8.80;5.20;;;22.60;52.10;;;;;;4978524;28;20499;-87
2021/07/04 00:33:10;;;;;;;14.53;6.27;;;22.50;51.50;;;;;;4986202;28;20522;-87
2021/07/04 00:35:37;;;;;;;11.77;6.00;;;22.70;51.80;;;;;;4997124;28;20509;-87
2021/07/04 00:38:05;;;;;;;6.57;5.13;;;22.70;52.20;;;;;;4991653;28;20467;-87
2021/07/04 00:40:33;;;;;;;7.80;6.03;;;22.50;52.70;;;;;;4977420;28;20451;-87
2021/07/04 00:43:00;;;;;;;8.37;6.23;;;22.30;53.30;;;;;;4977494;28;20519;-87
2021/07/04 00:45:28;;;;;;;11.60;6.33;;;22.40;52.20;;;;;;4978273;28;20566;-87
2021/07/04 00:47:55;;;;;;;11.90;5.83;;;22.30;52.60;;;;;;4977039;28;20495;-87
2021/07/04 00:50:25;;;;;;;5.60;4.80;;;22.60;52.30;;;;;;4977203;28;20538;-87
2021/07/04 00:52:54;;;;;;;19.33;6.37;;;22.60;50.60;;;;;;4977793;28;20480;-87
2021/07/04 00:55:21;;;;;;;9.23;5.77;;;22.40;53.10;;;;;;4986337;28;20864;-87
2021/07/04 00:57:48;;;;;;;6.50;5.83;;;22.40;52.10;;;;;;4996948;28;20904;-87
2021/07/04 01:00:17;;;;;;;9.97;6.10;;;22.50;51.90;;;;;;4992344;28;20537;-87
2021/07/04 01:02:46;;;;;;;9.20;5.90;;;22.60;51.70;;;;;;4996537;28;20474;-87
2021/07/04 01:05:16;;;;;;;15.97;7.10;;;22.60;51.20;;;;;;4976882;28;20531;-87
2021/07/04 01:07:44;;;;;;;14.77;7.57;;;22.60;51.80;;;;;;4977593;28;20464;-88
2021/07/04 01:10:13;;;;;;;11.20;6.03;;;22.70;50.80;;;;;;4977362;28;20510;-88
2021/07/04 01:12:42;;;;;;;9.70;5.40;;;22.80;50.20;;;;;;4977095;28;20938;-89
2021/07/04 01:15:10;;;;;;;12.23;5.53;;;22.90;50.20;;;;;;4985332;28;21043;-88
2021/07/04 01:17:38;;;;;;;7.27;5.40;;;22.90;50.40;;;;;;4992374;28;20563;-88
2021/07/04 01:20:10;;;;;;;6.70;5.10;;;22.90;50.30;;;;;;4979652;28;20456;-88
2021/07/04 01:22:39;;;;;;;8.10;6.40;;;23.00;49.80;;;;;;4977044;28;20477;-88
2021/07/04 01:25:09;;;;;;;18.50;6.20;;;22.90;50.50;;;;;;4975462;28;20572;-88
2021/07/04 01:27:37;;;;;;;8.00;5.50;;;22.70;50.70;;;;;;4993278;28;20495;-88
2021/07/04 01:30:06;;;;;;;13.23;6.60;;;22.50;51.30;;;;;;4993650;28;20473;-88
2021/07/04 01:32:33;;;;;;;10.40;6.00;;;22.20;52.50;;;;;;4996192;28;20478;-88
2021/07/04 01:35:00;;;;;;;16.20;6.47;;;22.10;53.50;;;;;;4995890;28;20514;-88
2021/07/04 01:37:27;;;;;;;19.80;6.43;;;21.80;53.90;;;;;;4991990;28;20984;-88
2021/07/04 01:39:53;;;;;;;10.70;6.17;;;21.80;54.10;;;;;;4979977;28;20542;-88
2021/07/04 01:42:22;;;;;;;9.50;6.30;;;21.80;54.10;;;;;;4976640;28;20530;-88
2021/07/04 01:44:49;;;;;;;17.83;6.83;;;22.00;53.50;;;;;;4985031;28;20498;-88
2021/07/04 01:47:16;;;;;;;9.63;6.07;;;22.00;53.00;;;;;;4986069;28;20497;-88
2021/07/04 01:49:43;;;;;;;10.50;6.73;;;22.10;52.90;;;;;;4976966;28;20460;-86
2021/07/04 01:52:10;;;;;;;8.60;5.97;;;22.20;52.70;;;;;;4996918;28;20952;-88
2021/07/04 01:54:37;;;;;;;8.53;5.90;;;22.20;52.60;;;;;;4995942;28;20529;-87
2021/07/04 01:57:12;;;;;;;7.17;5.57;;;22.30;52.30;;;;;;4986258;28;20908;-88
2021/07/04 01:59:41;;;;;;;11.73;6.50;;;22.40;52.00;;;;;;4986622;28;20459;-88
2021/07/04 02:02:08;;;;;;;11.00;5.80;;;22.10;52.90;;;;;;4975647;28;20575;-88
2021/07/04 02:04:39;;;;;;;6.63;5.03;;;22.00;52.50;;;;;;4975211;28;20499;-88
2021/07/04 02:07:06;;;;;;;18.33;6.50;;;22.10;52.00;;;;;;4975998;28;20980;-88
2021/07/04 02:09:33;;;;;;;7.37;5.50;;;21.80;53.30;;;;;;4975819;28;20953;-88
2021/07/04 02:12:00;;;;;;;11.63;6.07;;;21.50;53.90;;;;;;4986774;28;20554;-87
2021/07/04 02:14:30;;;;;;;36.17;7.50;;;21.30;55.10;;;;;;4978742;28;20486;-88
2021/07/04 02:16:59;;;;;;;11.07;6.70;;;21.20;54.90;;;;;;4991314;28;20469;-88
2021/07/04 02:19:33;;;;;;;9.03;6.23;;;21.20;55.40;;;;;;4981986;28;20523;-87
2021/07/04 02:22:00;;;;;;;20.23;7.80;;;21.10;56.10;;;;;;4984583;28;20561;-88
2021/07/04 02:24:28;;;;;;;11.90;6.40;;;21.00;56.30;;;;;;4975373;28;20492;-88
2021/07/04 02:26:56;;;;;;;16.47;8.40;;;21.00;56.30;;;;;;4988285;28;21006;-88
2021/07/04 02:29:23;;;;;;;14.00;8.07;;;21.10;56.30;;;;;;4995034;28;20462;-88
2021/07/04 02:31:51;;;;;;;9.70;7.57;;;21.30;55.60;;;;;;4983970;28;20506;-86
2021/07/04 02:34:19;;;;;;;12.30;7.87;;;21.50;55.20;;;;;;4977542;28;21005;-88
2021/07/04 02:36:46;;;;;;;7.50;5.83;;;21.70;54.70;;;;;;4976264;28;20554;-87
2021/07/04 02:39:14;;;;;;;15.93;7.57;;;21.70;53.20;;;;;;4985416;28;20549;-88
2021/07/04 02:41:42;;;;;;;7.63;6.03;;;21.90;53.40;;;;;;4998861;28;20466;-88
2021/07/04 02:44:10;;;;;;;8.47;6.50;;;22.20;52.60;;;;;;5002435;28;20462;-87
2021/07/04 02:46:37;;;;;;;11.03;6.63;;;22.00;53.50;;;;;;5008594;28;20493;-87
2021/07/04 02:49:04;;;;;;;23.13;9.37;;;21.90;53.80;;;;;;4983232;28;20470;-88
2021/07/04 02:51:34;;;;;;;7.03;5.47;;;21.50;54.90;;;;;;4979107;28;20455;-88
2021/07/04 02:54:01;;;;;;;11.40;7.60;;;21.50;54.90;;;;;;4982199;28;20559;-88
2021/07/04 02:56:29;;;;;;;19.13;7.90;;;21.60;55.30;;;;;;4983986;28;20554;-88
2021/07/04 02:58:56;;;;;;;14.80;7.23;;;21.90;53.90;;;;;;4976559;28;21020;-88
2021/07/04 03:01:23;;;;;;;21.60;8.83;;;21.90;54.10;;;;;;4976567;28;20966;-88
2021/07/04 03:03:50;;;;;;;15.70;8.70;;;22.00;53.90;;;;;;4982564;28;20502;-88
2021/07/04 03:06:17;;;;;;;19.10;7.40;;;22.00;53.50;;;;;;4987389;28;20496;-88
2021/07/04 03:08:45;;;;;;;9.40;6.73;;;22.10;53.60;;;;;;4983517;28;20513;-87
2021/07/04 03:11:12;;;;;;;19.63;8.63;;;22.00;53.50;;;;;;4995349;28;20463;-88
2021/07/04 03:13:39;;;;;;;11.80;8.13;;;22.10;53.50;;;;;;4992008;28;20824;-88
2021/07/04 03:16:06;;;;;;;21.30;6.97;;;22.00;54.00;;;;;;4974073;28;20566;-87
2021/07/04 03:18:33;;;;;;;8.63;6.20;;;21.80;54.10;;;;;;4978469;28;20483;-88
2021/07/04 03:21:00;;;;;;;17.70;8.23;;;21.80;53.30;;;;;;4975838;28;20558;-87
2021/07/04 03:23:27;;;;;;;20.17;7.93;;;22.10;53.80;;;;;;4983199;28;20542;-88
2021/07/04 03:25:56;;;;;;;27.93;7.37;;;22.10;53.60;;;;;;4978338;28;21039;-88
2021/07/04 03:28:23;;;;;;;12.80;8.00;;;22.10;53.40;;;;;;4999305;28;20491;-84
2021/07/04 03:30:50;;;;;;;13.20;7.60;;;21.90;53.60;;;;;;4988378;28;20463;-87
2021/07/04 03:33:17;;;;;;;22.30;8.10;;;21.70;54.80;;;;;;4986676;28;20471;-87
2021/07/04 03:35:45;;;;;;;9.87;7.20;;;21.70;54.60;;;;;;4982607;28;20524;-87
2021/07/04 03:38:12;;;;;;;12.90;6.43;;;21.80;54.50;;;;;;4973733;28;20455;-87
2021/07/04 03:40:39;;;;;;;11.07;7.20;;;21.90;53.40;;;;;;4974875;28;20474;-87
2021/07/04 03:43:08;;;;;;;10.20;7.40;;;21.90;54.40;;;;;;4974414;28;20881;-87
2021/07/04 03:45:34;;;;;;;12.97;7.80;;;21.90;54.30;;;;;;4974316;28;20551;-87
2021/07/04 03:48:02;;;;;;;12.77;6.80;;;21.80;54.10;;;;;;4993901;28;20470;-90
2021/07/04 03:50:29;;;;;;;15.40;7.60;;;21.80;54.40;;;;;;4997557;28;20431;-86
2021/07/04 03:52:56;;;;;;;11.13;7.47;;;21.60;54.90;;;;;;4982048;28;20506;-87
2021/07/04 03:55:24;;;;;;;8.50;6.53;;;21.80;54.30;;;;;;4996418;28;20898;-87
2021/07/04 03:57:52;;;;;;;12.37;7.53;;;21.80;54.20;;;;;;4980092;28;20478;-87
2021/07/04 04:00:21;;;;;;;12.50;6.93;;;21.90;53.90;;;;;;4984519;28;20471;-87
2021/07/04 04:02:48;;;;;;;9.90;6.17;;;21.80;54.40;;;;;;4991284;28;20997;-87
2021/07/04 04:05:16;;;;;;;8.77;5.30;;;22.10;53.70;;;;;;4983373;28;20530;-87
2021/07/04 04:07:43;;;;;;;20.30;7.20;;;22.20;53.00;;;;;;4993067;28;20902;-87
2021/07/04 04:10:12;;;;;;;13.03;6.00;;;22.40;53.20;;;;;;4997777;28;20852;-87
2021/07/04 04:12:39;;;;;;;7.43;5.97;;;22.70;52.50;;;;;;4997054;28;20455;-87
2021/07/04 04:15:08;;;;;;;8.17;6.40;;;22.60;52.60;;;;;;4994837;28;20525;-87
2021/07/04 04:17:37;;;;;;;7.07;5.33;;;22.50;52.90;;;;;;4998105;28;20454;-87
2021/07/04 04:20:05;;;;;;;12.10;6.90;;;22.30;53.50;;;;;;4996312;28;20885;-88
2021/07/04 04:22:32;;;;;;;9.13;6.47;;;22.40;53.20;;;;;;4995831;28;20547;-86
2021/07/04 04:24:59;;;;;;;9.53;6.47;;;22.10;53.80;;;;;;4976449;28;20542;-87
2021/07/04 04:27:26;;;;;;;9.77;5.40;;;22.40;53.60;;;;;;4977511;28;20499;-87
2021/07/04 04:29:53;;;;;;;11.80;5.67;;;22.40;52.50;;;;;;4977886;28;20865;-89
2021/07/04 04:32:20;;;;;;;9.67;6.20;;;22.50;52.80;;;;;;4995102;28;20546;-87
2021/07/04 04:34:49;;;;;;;11.10;7.13;;;22.40;53.20;;;;;;4983333;28;20519;-88
2021/07/04 04:37:16;;;;;;;8.50;5.50;;;22.50;52.90;;;;;;4977075;28;20483;-88
2021/07/04 04:39:43;;;;;;;19.20;6.50;;;22.60;52.20;;;;;;4977221;28;20558;-88
2021/07/04 04:42:10;;;;;;;8.17;7.23;;;22.40;53.00;;;;;;4976748;28;20640;-88
2021/07/04 04:44:37;;;;;;;13.10;6.93;;;22.50;52.90;;;;;;4976542;28;20574;-87
2021/07/04 04:47:05;;;;;;;13.60;7.63;;;22.60;53.00;;;;;;4994142;28;20534;-88
2021/07/04 04:49:32;;;;;;;15.70;7.00;;;22.70;52.50;;;;;;4982017;28;20558;-87
2021/07/04 04:52:00;;;;;;;9.90;6.50;;;22.80;52.20;;;;;;4976639;28;20482;-87
2021/07/04 04:54:27;;;;;;;7.97;6.10;;;22.70;51.50;;;;;;4978157;28;20474;-88
2021/07/04 04:56:54;;;;;;;8.90;6.50;;;22.80;52.10;;;;;;4985041;28;21066;-88
2021/07/04 04:59:21;;;;;;;10.43;5.80;;;23.10;51.60;;;;;;4997376;28;20542;-88
2021/07/04 05:01:48;;;;;;;11.83;6.43;;;23.40;50.40;;;;;;5009611;28;20493;-88
2021/07/04 05:04:15;;;;;;;8.73;6.57;;;23.60;51.00;;;;;;5010560;28;20435;-88
2021/07/04 05:06:42;;;;;;;11.03;6.20;;;23.30;50.60;;;;;;5002825;28;20573;-88
2021/07/04 05:09:10;;;;;;;7.57;6.00;;;23.00;51.40;;;;;;4990345;28;20452;-88
2021/07/04 05:11:37;;;;;;;10.60;6.60;;;23.00;52.00;;;;;;4989494;28;20440;-87
2021/07/04 05:14:04;;;;;;;16.20;7.03;;;23.10;52.10;;;;;;4976019;28;20600;-88
2021/07/04 05:16:31;;;;;;;14.13;5.30;;;23.10;51.70;;;;;;4976600;28;20566;-87
2021/07/04 05:19:04;;;;;;;8.57;7.03;;;23.10;51.60;;;;;;4982458;28;20463;-87
2021/07/04 05:21:32;;;;;;;9.80;5.90;;;23.00;51.80;;;;;;4995458;28;21010;-88
2021/07/04 05:23:59;;;;;;;7.80;6.80;;;23.10;52.00;;;;;;4994087;28;20462;-87
2021/07/04 05:26:27;;;;;;;13.90;5.73;;;23.40;51.20;;;;;;4994904;28;20513;-87
2021/07/04 05:28:54;;;;;;;11.00;6.20;;;23.70;50.70;;;;;;4978168;28;20971;-88
2021/07/04 05:31:21;;;;;;;20.73;6.87;;;24.00;49.00;;;;;;4974849;28;20463;-87
2021/07/04 05:33:48;;;;;;;7.70;6.40;;;24.10;48.30;;;;;;4981915;28;20541;-88
2021/07/04 05:36:14;;;;;;;9.57;5.77;;;24.20;48.30;;;;;;4995130;28;20672;-88
2021/07/04 05:38:42;;;;;;;11.40;8.00;;;24.30;49.20;;;;;;4991080;28;20459;-88
2021/07/04 05:41:10;;;;;;;7.97;6.77;;;24.50;49.00;;;;;;4977505;28;20451;-88
2021/07/04 05:43:39;;;;;;;9.40;6.53;;;24.70;48.80;;;;;;4974857;28;20478;-88
2021/07/04 05:46:06;;;;;;;8.37;6.77;;;24.60;47.80;;;;;;4975523;28;20551;-88
2021/07/04 05:48:33;;;;;;;12.70;5.70;;;25.10;46.90;;;;;;4974852;28;20483;-87
2021/07/04 05:51:00;;;;;;;8.30;6.07;;;25.30;45.80;;;;;;4975332;28;20506;-88
2021/07/04 05:53:27;;;;;;;9.60;5.60;;;25.20;45.90;;;;;;4986985;28;20885;-88
2021/07/04 05:55:54;;;;;;;15.60;6.13;;;24.70;47.10;;;;;;4976967;28;20575;-88
2021/07/04 05:58:21;;;;;;;9.63;6.00;;;24.80;47.10;;;;;;4974150;28;20492;-87
2021/07/04 06:00:50;;;;;;;10.23;7.40;;;25.00;47.00;;;;;;4974385;28;20476;-88
2021/07/04 06:03:16;;;;;;;7.53;5.90;;;25.00;47.10;;;;;;4987776;28;20844;-88
2021/07/04 06:05:43;;;;;;;19.80;7.33;;;25.20;46.80;;;;;;4976066;28;20566;-88
2021/07/04 06:08:10;;;;;;;12.13;7.23;;;25.40;46.50;;;;;;4988540;28;20524;-88
2021/07/04 06:10:38;;;;;;;18.83;7.07;;;25.50;47.00;;;;;;4992658;28;20464;-88
2021/07/04 06:13:05;;;;;;;9.77;7.10;;;25.30;47.50;;;;;;4994335;28;20463;-88
2021/07/04 06:15:32;;;;;;;18.50;7.90;;;25.50;47.90;;;;;;4987234;28;20479;-88
2021/07/04 06:18:00;;;;;;;12.07;7.27;;;25.90;48.30;;;;;;4977680;28;20464;-88
2021/07/04 06:20:27;;;;;;;8.83;7.07;;;26.30;49.40;;;;;;4978399;28;20532;-86
2021/07/04 06:22:55;;;;;;;12.03;6.07;;;27.50;43.50;;;;;;4984777;28;20443;-86
2021/07/04 06:25:23;;;;;;;8.63;6.20;;;28.50;42.10;;;;;;4974929;28;20479;-86
2021/07/04 06:27:50;;;;;;;6.87;5.10;;;29.50;40.60;;;;;;4993759;28;20593;-88
2021/07/04 06:30:18;;;;;;;9.90;5.90;;;30.80;37.30;;;;;;4979322;28;20507;-89
2021/07/04 06:32:45;;;;;;;11.73;5.30;;;31.50;35.40;;;;;;4997442;28;20459;-88
2021/07/04 06:35:15;;;;;;;7.00;5.00;;;32.10;35.20;;;;;;4989850;28;20487;-89
2021/07/04 06:37:43;;;;;;;14.20;5.40;;;32.80;33.00;;;;;;4977178;28;20520;-88
2021/07/04 06:40:11;;;;;;;11.13;5.17;;;33.40;31.30;;;;;;4977826;28;20937;-88
2021/07/04 06:42:38;;;;;;;5.90;4.47;;;33.90;31.60;;;;;;4977995;28;20531;-88
2021/07/04 06:45:06;;;;;;;10.57;5.03;;;33.80;29.50;;;;;;4985973;28;20491;-86
2021/07/04 06:47:33;;;;;;;10.43;4.80;;;33.60;30.00;;;;;;4999021;28;20462;-87
2021/07/04 06:50:00;;;;;;;9.57;5.40;;;32.90;31.90;;;;;;5003163;28;20462;-87
2021/07/04 06:52:28;;;;;;;9.50;4.90;;;33.10;29.90;;;;;;5011937;28;20466;-88
2021/07/04 06:54:55;;;;;;;6.40;5.10;;;32.60;28.70;;;;;;4994294;28;20475;-87
2021/07/04 06:57:28;;;;;;;9.53;3.97;;;32.10;31.60;;;;;;4992323;28;20488;-87
2021/07/04 06:59:57;;;;;;;10.17;5.40;;;32.40;31.30;;;;;;5004779;28;20450;-88
2021/07/04 07:02:24;;;;;;;7.53;5.00;;;33.60;28.70;;;;;;5001354;28;20463;-87
2021/07/04 07:04:52;;;;;;;6.27;5.30;;;32.90;28.00;;;;;;5012168;28;20455;-86
2021/07/04 07:07:19;;;;;;;6.10;4.63;;;32.20;29.20;;;;;;5012277;28;20432;-87
2021/07/04 07:09:47;;;;;;;6.20;4.97;;;31.80;30.00;;;;;;4996377;28;20447;-86
2021/07/04 07:12:14;;;;;;;6.20;4.47;;;31.80;30.10;;;;;;4995356;28;20459;-87
2021/07/04 07:14:41;;;;;;;6.23;4.47;;;31.50;31.20;;;;;;5013706;28;20435;-86
2021/07/04 07:17:08;;;;;;;6.40;4.63;;;31.40;31.10;;;;;;5010400;28;20464;-88
2021/07/04 07:19:35;;;;;;;16.60;4.77;;;30.40;32.80;;;;;;4993746;28;20495;-88
2021/07/04 07:22:03;;;;;;;6.80;4.63;;;30.10;33.00;;;;;;4994953;28;20452;-87
2021/07/04 07:24:30;;;;;;;8.47;5.07;;;29.20;34.20;;;;;;5007386;28;20446;-88
2021/07/04 07:26:58;;;;;;;7.37;4.93;;;29.00;34.40;;;;;;5013282;28;20463;-88
2021/07/04 07:29:25;;;;;;;7.80;4.40;;;28.60;36.10;;;;;;4983680;28;20499;-89
2021/07/04 07:31:52;;;;;;;9.70;7.60;;;29.00;35.70;;;;;;4998339;28;20458;-89
2021/07/04 07:34:19;;;;;;;9.67;5.03;;;29.10;34.40;;;;;;4991005;28;20514;-89
2021/07/04 07:36:46;;;;;;;5.97;4.47;;;29.40;35.70;;;;;;4984901;28;20523;-89
2021/07/04 07:39:13;;;;;;;5.00;4.30;;;30.10;33.80;;;;;;4982474;28;20554;-89
2021/07/04 07:41:40;;;;;;;6.90;4.57;;;31.00;32.20;;;;;;5000756;28;20491;-89
2021/07/04 07:44:09;;;;;;;7.13;5.10;;;32.40;30.50;;;;;;4998901;28;20486;-89
2021/07/04 07:46:36;;;;;;;4.60;3.90;;;33.80;28.30;;;;;;4982209;28;20550;-89
2021/07/04 07:49:04;;;;;;;7.10;4.97;;;34.70;27.40;;;;;;4995383;28;20459;-89
2021/07/04 07:51:31;;;;;;;10.57;4.50;;;35.10;26.90;;;;;;4989365;28;20447;-89
2021/07/04 07:53:58;;;;;;;6.73;4.80;;;36.00;25.40;;;;;;4989463;28;20452;-89
2021/07/04 07:56:25;;;;;;;6.47;4.63;;;34.60;26.60;;;;;;4977908;28;21024;-89
2021/07/04 07:58:52;;;;;;;5.60;4.50;;;35.00;26.50;;;;;;4993564;28;20529;-89
2021/07/04 08:01:21;;;;;;;4.93;4.43;;;36.30;25.10;;;;;;4983325;28;20476;-89
2021/07/04 08:03:48;;;;;;;5.10;4.33;;;35.70;25.10;;;;;;4976946;28;20463;-89
2021/07/04 08:06:15;;;;;;;7.80;4.67;;;35.00;25.90;;;;;;4978043;28;20483;-89
2021/07/04 08:08:42;;;;;;;7.53;4.80;;;34.90;26.00;;;;;;4976467;28;20459;-89
2021/07/04 08:11:09;;;;;;;9.07;4.50;;;34.40;25.80;;;;;;4980153;28;20553;-89
2021/07/04 08:13:36;;;;;;;7.10;4.13;;;34.00;26.60;;;;;;4980835;28;20547;-89
2021/07/04 08:16:03;;;;;;;6.07;4.40;;;33.80;26.20;;;;;;4996984;28;20478;-90
2021/07/04 08:18:31;;;;;;;15.93;4.10;;;34.30;26.70;;;;;;4997072;28;20470;-89
2021/07/04 08:20:58;;;;;;;6.23;4.07;;;34.80;26.10;;;;;;4997482;28;20509;-89
2021/07/04 08:23:26;;;;;;;4.97;3.53;;;35.00;25.10;;;;;;4998183;28;20812;-89
2021/07/04 08:25:53;;;;;;;4.60;3.97;;;35.50;25.20;;;;;;4998443;28;20497;-88
2021/07/04 08:28:20;;;;;;;5.33;4.20;;;35.20;25.20;;;;;;4984400;28;20463;-88
2021/07/04 08:30:48;;;;;;;6.23;4.47;;;35.10;24.90;;;;;;4978312;28;20811;-89
2021/07/04 08:33:15;;;;;;;4.50;3.27;;;34.90;25.00;;;;;;4977606;28;20456;-90
2021/07/04 08:35:43;;;;;;;5.07;3.93;;;35.40;25.20;;;;;;4980581;28;20915;-89
2021/07/04 08:38:10;;;;;;;4.00;3.80;;;35.80;23.80;;;;;;4978695;28;20487;-89
2021/07/04 08:40:37;;;;;;;4.50;4.10;;;35.50;23.90;;;;;;4980528;28;20465;-89
2021/07/04 08:43:05;;;;;;;5.23;3.83;;;34.20;24.90;;;;;;4984237;28;20494;-89
2021/07/04 08:45:36;;;;;;;6.80;3.87;;;32.60;26.80;;;;;;4984726;28;20464;-88
2021/07/04 08:48:03;;;;;;;5.77;4.27;;;31.20;29.30;;;;;;5002387;28;20550;-88
2021/07/04 08:50:30;;;;;;;13.83;4.60;;;30.10;30.20;;;;;;4997591;28;20461;-89
2021/07/04 08:53:00;;;;;;;5.07;4.10;;;29.60;32.50;;;;;;4983744;28;20506;-89
2021/07/04 08:55:28;;;;;;;9.33;4.63;;;29.60;32.10;;;;;;4976630;28;20554;-89
2021/07/04 08:57:57;;;;;;;4.77;4.07;;;29.70;32.10;;;;;;4990374;28;20988;-89
2021/07/04 09:00:25;;;;;;;8.23;4.20;;;29.60;32.80;;;;;;4984022;28;20452;-89
2021/07/04 09:02:52;;;;;;;5.10;4.03;;;29.50;33.00;;;;;;4989247;28;20585;-89
2021/07/04 09:05:19;;;;;;;4.70;3.93;;;29.40;32.90;;;;;;4982538;28;20504;-89
2021/07/04 09:07:50;;;;;;;4.37;3.90;;;29.30;32.90;;;;;;4975667;28;20892;-89
2021/07/04 09:10:19;;;;;;;7.57;4.60;;;29.40;33.10;;;;;;4993539;28;20513;-89
2021/07/04 09:12:48;;;;;;;6.47;4.20;;;29.90;32.90;;;;;;4986477;28;20451;-87
2021/07/04 09:15:16;;;;;;;4.67;4.00;;;30.40;31.50;;;;;;4990261;28;20462;-89
2021/07/04 09:17:46;;;;;;;11.60;4.53;;;30.30;31.40;;;;;;4989231;28;20575;-89
2021/07/04 09:20:16;;;;;;;6.80;4.30;;;30.70;31.00;;;;;;4989419;28;20459;-89
2021/07/04 09:22:45;;;;;;;6.23;4.70;;;30.70;30.90;;;;;;4996297;28;20539;-89
2021/07/04 09:25:15;;;;;;;5.93;4.10;;;30.80;30.70;;;;;;4995843;28;20822;-89
2021/07/04 09:27:59;;;;;;;5.77;4.53;;;30.50;30.90;;;;;;4995567;28;20486;-89
2021/07/04 09:30:33;;;;;;;4.07;3.70;;;30.70;30.60;;;;;;4995867;28;20422;-89
2021/07/04 09:33:13;;;;;;;5.23;4.23;;;30.50;30.50;;;;;;4996077;28;20960;-89
2021/07/04 09:35:41;;;;;;;8.00;4.27;;;30.30;30.60;;;;;;4989978;28;20495;-89
2021/07/04 09:38:17;;;;;;;6.10;4.17;;;30.20;31.30;;;;;;4994551;28;20489;-89
2021/07/04 09:40:45;;;;;;;5.97;4.00;;;29.90;32.20;;;;;;4994177;28;20577;-89
2021/07/04 09:43:18;;;;;;;7.73;3.87;;;30.60;30.60;;;;;;4995507;28;21000;-88
2021/07/04 09:45:50;;;;;;;7.07;4.30;;;30.80;31.20;;;;;;4994244;28;20458;-88
2021/07/04 09:48:19;;;;;;;7.90;3.87;;;30.90;30.00;;;;;;4957644;29;20414;-89
2021/07/04 09:50:48;;;;;;;4.90;3.97;;;31.00;29.80;;;;;;4964327;28;20488;-89
2021/07/04 09:53:15;;;;;;;4.70;3.87;;;30.90;29.50;;;;;;4985135;28;20452;-89
2021/07/04 09:55:44;;;;;;;3.83;3.60;;;30.40;30.40;;;;;;4976239;28;20973;-89
2021/07/04 09:58:13;;;;;;;17.60;4.40;;;31.00;30.00;;;;;;4994475;28;20565;-89
2021/07/04 10:00:43;;;;;;;6.27;3.40;;;30.90;30.20;;;;;;4995066;28;20872;-89
2021/07/04 10:03:16;;;;;;;5.20;3.97;;;30.50;30.80;;;;;;4978046;28;20913;-89
2021/07/04 10:05:45;;;;;;;5.23;3.73;;;30.70;30.60;;;;;;4992852;28;20482;-89
2021/07/04 10:08:20;;;;;;;6.53;4.07;;;30.80;30.70;;;;;;4983304;28;20431;-89
2021/07/04 10:10:48;;;;;;;4.13;3.83;;;30.30;30.70;;;;;;4978493;28;20856;-89
2021/07/04 10:13:16;;;;;;;8.93;4.60;;;30.10;31.30;;;;;;4994546;28;20451;-89
2021/07/04 10:15:43;;;;;;;5.70;3.97;;;30.20;30.30;;;;;;4990782;28;20893;-89
2021/07/04 10:18:12;;;;;;;7.20;4.50;;;30.00;32.00;;;;;;4974860;28;20487;-89
2021/07/04 10:20:39;;;;;;;3.90;3.67;;;29.90;33.40;;;;;;4975991;28;20467;-89
2021/07/04 10:23:07;;;;;;;6.60;4.37;;;29.90;32.30;;;;;;4972360;28;20495;-88
2021/07/04 10:25:35;;;;;;;5.70;3.77;;;29.90;32.60;;;;;;4974894;28;20480;-89
2021/07/04 10:28:03;;;;;;;6.27;3.60;;;30.00;31.20;;;;;;4974489;28;20510;-89
2021/07/04 10:30:33;;;;;;;4.70;3.97;;;30.40;30.40;;;;;;4969456;28;20495;-89
2021/07/04 10:33:13;;;;;;;4.00;3.30;;;30.70;29.80;;;;;;4980086;28;20491;-88
2021/07/04 10:36:00;;;;;;;4.00;3.43;;;31.00;30.80;;;;;;4974423;28;20501;-89
2021/07/04 10:38:38;;;;;;;5.27;3.60;;;30.90;29.70;;;;;;4982139;28;20449;-89
2021/07/04 10:41:06;;;;;;;6.67;3.93;;;31.20;30.10;;;;;;4993605;28;20446;-90
2021/07/04 10:43:52;;;;;;;4.47;3.93;;;31.30;29.50;;;;;;4994157;28;20467;-90
2021/07/04 10:46:46;;;;;;;8.97;4.27;;;31.00;29.10;;;;;;4993874;28;20463;-89
2021/07/04 10:49:17;;;;;;;5.13;3.77;;;30.80;29.90;;;;;;4992936;28;21011;-89
2021/07/04 10:51:58;;;;;;;5.40;3.90;;;29.90;30.10;;;;;;4978429;28;20440;-90
2021/07/04 10:54:48;;;;;;;5.37;4.27;;;29.60;30.00;;;;;;4974571;28;20482;-89
2021/07/04 10:57:16;;;;;;;6.90;4.13;;;30.30;30.20;;;;;;4983091;28;20452;-90
2021/07/04 10:59:51;;;;;;;7.40;4.30;;;30.30;30.30;;;;;;5019969;28;20469;-86
2021/07/04 11:02:37;;;;;;;4.50;4.00;;;30.00;30.30;;;;;;5019853;28;20435;-90
2021/07/04 11:05:07;;;;;;;6.20;4.00;;;30.60;30.50;;;;;;4998651;28;21034;-89
2021/07/04 11:08:05;;;;;;;3.93;3.70;;;30.70;30.20;;;;;;4994822;28;20886;-89
2021/07/04 11:10:33;;;;;;;4.07;3.83;;;31.10;29.10;;;;;;4978663;28;20452;-90
2021/07/04 11:13:33;;;;;;;4.63;3.83;;;30.60;30.60;;;;;;4980385;28;20538;-89
2021/07/04 11:16:23;;;;;;;5.63;4.40;;;30.00;30.00;;;;;;4979724;28;20456;-89
2021/07/04 11:19:06;;;;;;;4.90;4.40;;;30.30;30.40;;;;;;4976007;28;20463;-90
2021/07/04 11:21:56;;;;;;;6.50;5.50;;;30.40;30.40;;;;;;4979560;28;20508;-90
2021/07/04 11:24:26;;;;;;;4.10;3.93;;;30.30;30.30;;;;;;4959975;28;20519;-88
2021/07/04 11:27:22;;;;;;;9.27;4.70;;;30.00;30.90;;;;;;4979724;28;20957;-89
2021/07/04 11:30:24;;;;;;;5.07;4.13;;;30.30;30.30;;;;;;4980277;28;20440;-89
2021/07/04 11:33:26;;;;;;;5.10;4.60;;;30.40;29.90;;;;;;4980736;28;20438;-89
2021/07/04 11:35:55;;;;;;;6.10;4.43;;;29.60;30.00;;;;;;4979230;28;20968;-89
2021/07/04 11:38:26;;;;;;;4.57;4.13;;;29.60;30.00;;;;;;4993464;28;20850;-89
2021/07/04 11:40:53;;;;;;;4.60;4.30;;;29.80;30.00;;;;;;4999734;28;20427;-89
2021/07/04 11:43:22;;;;;;;5.80;4.13;;;29.10;30.90;;;;;;4986992;28;20455;-89
2021/07/04 11:45:54;;;;;;;5.70;4.53;;;28.70;31.80;;;;;;4995357;28;20836;-89
2021/07/04 11:48:22;;;;;;;5.23;4.47;;;29.40;31.40;;;;;;4988493;28;20798;-90
2021/07/04 11:50:51;;;;;;;5.20;4.70;;;30.10;30.20;;;;;;4999560;28;20473;-89
2021/07/04 11:53:18;;;;;;;5.43;4.40;;;30.30;30.30;;;;;;4997746;28;20444;-90
2021/07/04 11:56:03;;;;;;;5.40;4.57;;;30.50;30.40;;;;;;5001285;28;20471;-91
2021/07/04 11:58:31;;;;;;;4.80;4.00;;;30.50;29.70;;;;;;4984103;28;20483;-91
2021/07/04 12:00:59;;;;;;;4.90;4.17;;;30.50;30.50;;;;;;4981968;28;20483;-90
2021/07/04 12:03:27;;;;;;;6.30;4.33;;;30.10;31.60;;;;;;4981846;28;20770;-91
2021/07/04 12:06:06;;;;;;;5.53;4.47;;;30.20;30.90;;;;;;4979156;28;20483;-90
2021/07/04 12:08:51;;;;;;;5.90;4.13;;;30.30;30.30;;;;;;4979361;28;20921;-90
2021/07/04 12:11:20;;;;;;;5.57;4.90;;;30.30;30.30;;;;;;4979330;28;20409;-90
2021/07/04 12:13:47;;;;;;;6.40;4.77;;;30.50;30.50;;;;;;4961975;28;20449;-90
2021/07/04 12:16:15;;;;;;;4.80;4.00;;;30.40;30.40;;;;;;5002538;28;20470;-90
2021/07/04 12:18:42;;;;;;;3.90;3.70;;;30.40;30.40;;;;;;5001933;28;20474;-89
2021/07/04 12:21:09;;;;;;;6.60;4.10;;;30.00;31.10;;;;;;5001181;28;20541;-88
2021/07/04 12:23:36;;;;;;;5.67;4.83;;;30.20;31.00;;;;;;5000368;28;20439;-88
2021/07/04 12:26:07;;;;;;;5.50;4.90;;;30.50;31.50;;;;;;4998733;28;20479;-87
2021/07/04 12:28:36;;;;;;;5.60;4.50;;;30.60;30.60;;;;;;4964050;28;20478;-90
2021/07/04 12:31:03;;;;;;;9.57;4.20;;;30.90;30.80;;;;;;4965073;28;20468;-91
2021/07/04 12:33:30;;;;;;;7.20;4.20;;;30.30;31.10;;;;;;5004166;28;20517;-89
2021/07/04 12:36:01;;;;;;;4.57;3.90;;;30.10;31.00;;;;;;4999253;28;20952;-89
2021/07/04 12:38:31;;;;;;;6.63;4.87;;;29.40;32.20;;;;;;4960377;28;20525;-91
2021/07/04 12:41:01;;;;;;;5.10;4.17;;;30.00;31.90;;;;;;4981779;28;20512;-91
2021/07/04 12:43:30;;;;;;;8.93;4.60;;;30.50;31.40;;;;;;5003173;28;20423;-91
2021/07/04 12:46:00;;;;;;;6.03;4.00;;;30.80;30.70;;;;;;5002727;28;20519;-91
2021/07/04 12:48:30;;;;;;;4.50;4.00;;;30.90;31.30;;;;;;4984580;28;20425;-91
2021/07/04 12:51:00;;;;;;;8.63;4.40;;;31.30;30.20;;;;;;4983413;28;20838;-91
2021/07/04 12:53:38;;;;;;;5.93;4.23;;;31.50;29.80;;;;;;4984668;28;20531;-91